createdAt,value
2018-07-30T00:00:46.271Z,5.43
2018-07-30T00:03:15.415Z,5.10
2018-07-30T00:05:44.539Z,4.77
2018-07-30T00:08:13.975Z,4.93
2018-07-30T00:10:43.377Z,5.00
2018-07-30T00:13:12.571Z,4.73
2018-07-30T00:15:41.748Z,4.40
2018-07-30T00:18:10.904Z,4.27
2018-07-30T00:20:40.000Z,4.23
2018-07-30T00:23:09.530Z,4.30
2018-07-30T00:25:38.646Z,4.17
2018-07-30T00:28:07.841Z,4.23
2018-07-30T00:30:37.048Z,3.90
2018-07-30T00:33:06.525Z,3.50
2018-07-30T00:35:35.616Z,2.90
2018-07-30T00:38:04.764Z,3.33
2018-07-30T00:40:33.951Z,2.70
2018-07-30T00:43:03.236Z,2.93
2018-07-30T00:45:32.446Z,2.70
2018-07-30T00:48:01.638Z,3.07
2018-07-30T00:50:30.926Z,2.83
2018-07-30T00:53:00.097Z,2.67
2018-07-30T00:55:29.280Z,2.60
2018-07-30T00:57:58.496Z,2.90
2018-07-30T01:00:28.584Z,2.80
2018-07-30T01:02:57.952Z,2.60
2018-07-30T01:05:27.234Z,2.60
2018-07-30T01:07:56.343Z,2.57
2018-07-30T01:10:25.596Z,2.20
2018-07-30T01:12:54.857Z,2.70
2018-07-30T01:15:24.002Z,2.57
2018-07-30T01:17:53.297Z,2.90
2018-07-30T01:20:22.413Z,2.77
2018-07-30T01:22:51.878Z,2.40
2018-07-30T01:25:20.985Z,2.30
2018-07-30T01:27:50.175Z,2.57
2018-07-30T01:30:19.447Z,2.80
2018-07-30T01:32:48.619Z,2.50
2018-07-30T01:35:18.067Z,2.67
2018-07-30T01:37:47.332Z,2.37
2018-07-30T01:40:16.581Z,2.77
2018-07-30T01:42:45.804Z,2.63
2018-07-30T01:45:15.082Z,2.87
2018-07-30T01:47:44.211Z,2.63
2018-07-30T01:50:13.487Z,2.80
2018-07-30T01:52:42.702Z,2.60
2018-07-30T01:55:12.284Z,2.87
2018-07-30T01:57:41.445Z,3.03
2018-07-30T02:00:10.626Z,2.50
2018-07-30T02:02:43.691Z,3.03
2018-07-30T02:05:12.880Z,2.97
2018-07-30T02:07:42.749Z,2.97
2018-07-30T02:10:12.411Z,2.70
2018-07-30T02:12:41.644Z,2.90
2018-07-30T02:15:10.931Z,2.83
2018-07-30T02:17:40.148Z,3.20
2018-07-30T02:20:09.375Z,2.70
2018-07-30T02:22:38.680Z,2.90
2018-07-30T02:25:08.394Z,2.93
2018-07-30T02:27:37.602Z,2.53
2018-07-30T02:30:07.890Z,3.13
2018-07-30T02:32:37.414Z,2.90
2018-07-30T02:35:08.450Z,2.93
2018-07-30T02:37:37.662Z,2.83
2018-07-30T02:40:07.475Z,3.20
2018-07-30T02:42:36.655Z,2.47
2018-07-30T02:45:06.561Z,2.50
2018-07-30T02:47:35.789Z,2.90
2018-07-30T02:50:06.010Z,2.70
2018-07-30T02:52:35.233Z,3.17
2018-07-30T02:55:04.599Z,2.63
2018-07-30T02:57:33.435Z,3.13
2018-07-30T03:00:02.463Z,3.50
2018-07-30T03:02:31.788Z,3.27
2018-07-30T03:05:00.992Z,3.23
2018-07-30T03:07:30.174Z,3.03
2018-07-30T03:09:59.275Z,3.10
2018-07-30T03:12:28.449Z,3.23
2018-07-30T03:14:57.705Z,2.90
2018-07-30T03:17:26.943Z,2.83
2018-07-30T03:19:56.218Z,2.90
2018-07-30T03:22:25.374Z,2.63
2018-07-30T03:24:54.659Z,3.30
2018-07-30T03:27:23.952Z,3.00
2018-07-30T03:29:53.143Z,2.90
2018-07-30T03:32:22.358Z,3.20
2018-07-30T03:34:51.584Z,3.20
2018-07-30T03:37:20.744Z,3.13
2018-07-30T03:39:50.045Z,3.23
2018-07-30T03:42:19.294Z,3.20
2018-07-30T03:44:48.449Z,2.80
2018-07-30T03:47:17.631Z,3.10
2018-07-30T03:49:46.898Z,3.03
2018-07-30T03:52:16.188Z,3.27
2018-07-30T03:54:45.383Z,3.13
2018-07-30T03:57:14.606Z,3.10
2018-07-30T03:59:43.856Z,3.17
2018-07-30T04:02:13.072Z,3.23
2018-07-30T04:04:42.264Z,2.90
2018-07-30T04:07:11.509Z,3.00
2018-07-30T04:09:40.604Z,2.60
2018-07-30T04:12:09.703Z,3.10
2018-07-30T04:14:39.170Z,3.07
2018-07-30T04:17:08.370Z,2.80
2018-07-30T04:19:37.657Z,3.00
2018-07-30T04:22:07.890Z,3.07
2018-07-30T04:24:37.050Z,3.20
2018-07-30T04:27:06.591Z,3.20
2018-07-30T04:29:35.964Z,3.57
2018-07-30T04:32:05.407Z,3.47
2018-07-30T04:34:34.598Z,3.23
2018-07-30T04:37:03.731Z,3.00
2018-07-30T04:39:33.309Z,3.40
2018-07-30T04:42:02.712Z,3.20
2018-07-30T04:44:31.811Z,2.80
2018-07-30T04:47:01.001Z,3.40
2018-07-30T04:49:30.247Z,3.10
2018-07-30T04:51:59.335Z,3.07
2018-07-30T04:54:28.488Z,3.10
2018-07-30T04:56:57.763Z,2.77
2018-07-30T04:59:27.094Z,2.70
2018-07-30T05:01:56.379Z,2.90
2018-07-30T05:04:25.573Z,3.20
2018-07-30T05:06:54.872Z,2.73
2018-07-30T05:09:23.984Z,2.67
2018-07-30T05:11:53.203Z,2.90
2018-07-30T05:14:22.592Z,2.90
2018-07-30T05:16:51.688Z,2.67
2018-07-30T05:19:21.361Z,2.90
2018-07-30T05:21:50.481Z,2.43
2018-07-30T05:24:19.660Z,2.93
2018-07-30T05:26:48.850Z,2.53
2018-07-30T05:29:18.113Z,2.90
2018-07-30T05:31:47.273Z,2.50
2018-07-30T05:34:16.741Z,2.67
2018-07-30T05:36:46.208Z,3.30
2018-07-30T05:39:15.569Z,2.83
2018-07-30T05:41:44.811Z,3.10
2018-07-30T05:44:14.103Z,3.37
2018-07-30T05:46:43.412Z,2.90
2018-07-30T05:49:12.573Z,2.90
2018-07-30T05:51:41.407Z,2.67
2018-07-30T05:54:11.020Z,3.17
2018-07-30T05:56:40.241Z,2.70
2018-07-30T05:59:09.811Z,3.00
2018-07-30T06:01:38.994Z,3.17
2018-07-30T06:04:08.200Z,2.80
2018-07-30T06:06:38.052Z,3.53
2018-07-30T06:09:08.842Z,2.63
2018-07-30T06:11:38.720Z,3.27
2018-07-30T06:14:08.084Z,2.87
2018-07-30T06:16:37.229Z,2.70
2018-07-30T06:19:06.489Z,2.80
2018-07-30T06:21:35.860Z,2.63
2018-07-30T06:24:05.176Z,2.87
2018-07-30T06:26:34.483Z,2.97
2018-07-30T06:29:03.771Z,2.87
2018-07-30T06:31:33.209Z,2.93
2018-07-30T06:34:02.416Z,2.60
2018-07-30T06:36:31.601Z,2.83
2018-07-30T06:39:00.762Z,3.37
2018-07-30T06:41:30.089Z,2.90
2018-07-30T06:43:58.848Z,2.67
2018-07-30T06:46:27.944Z,2.77
2018-07-30T06:48:57.089Z,3.10
2018-07-30T06:51:26.448Z,3.13
2018-07-30T06:53:55.688Z,2.95
2018-07-30T06:56:24.771Z,2.70
2018-07-30T06:58:54.047Z,2.70
2018-07-30T07:01:23.140Z,3.00
2018-07-30T07:03:52.360Z,2.70
2018-07-30T07:06:21.653Z,3.17
2018-07-30T07:08:50.956Z,3.30
2018-07-30T07:11:20.171Z,2.83
2018-07-30T07:13:49.739Z,2.70
2018-07-30T07:16:18.960Z,2.40
2018-07-30T07:18:48.144Z,2.35
2018-07-30T07:21:17.348Z,1.98
2018-07-30T07:23:46.461Z,1.70
2018-07-30T07:26:15.776Z,3.30
2018-07-30T07:28:44.951Z,2.15
2018-07-30T07:31:14.180Z,2.10
2018-07-30T07:33:43.430Z,2.80
2018-07-30T07:36:12.734Z,2.25
2018-07-30T07:38:41.907Z,2.22
2018-07-30T07:41:11.464Z,2.10
2018-07-30T07:43:40.968Z,1.98
2018-07-30T07:46:10.403Z,2.10
2018-07-30T07:48:39.587Z,2.20
2018-07-30T07:51:08.950Z,1.90
2018-07-30T07:53:38.140Z,2.02
2018-07-30T07:56:07.391Z,1.95
2018-07-30T07:58:36.456Z,1.72
2018-07-30T08:01:05.596Z,1.75
2018-07-30T08:03:35.665Z,1.87
2018-07-30T08:06:04.876Z,2.40
2018-07-30T08:08:34.083Z,1.67
2018-07-30T08:11:03.950Z,1.90
2018-07-30T08:13:33.061Z,2.00
2018-07-30T08:16:02.295Z,1.90
2018-07-30T08:18:31.504Z,2.22
2018-07-30T08:21:00.679Z,2.20
2018-07-30T08:23:30.208Z,2.50
2018-07-30T08:25:59.392Z,1.87
2018-07-30T08:28:29.275Z,1.95
2018-07-30T08:30:58.490Z,1.75
2018-07-30T08:33:27.691Z,1.85
2018-07-30T08:35:56.823Z,2.33
2018-07-30T08:38:25.923Z,2.10
2018-07-30T08:40:55.084Z,2.70
2018-07-30T08:43:24.367Z,2.20
2018-07-30T08:45:53.679Z,2.25
2018-07-30T08:48:22.882Z,2.50
2018-07-30T08:50:52.416Z,1.95
2018-07-30T08:53:21.604Z,2.40
2018-07-30T08:55:50.794Z,1.90
2018-07-30T08:58:20.029Z,2.05
2018-07-30T09:00:49.180Z,2.37
2018-07-30T09:03:18.950Z,2.20
2018-07-30T09:05:49.019Z,2.30
2018-07-30T09:08:18.231Z,2.20
2018-07-30T09:10:47.528Z,2.98
2018-07-30T09:13:16.697Z,2.15
2018-07-30T09:15:45.832Z,3.25
2018-07-30T09:18:15.127Z,2.10
2018-07-30T09:20:44.448Z,2.30
2018-07-30T09:23:13.608Z,2.65
2018-07-30T09:25:42.934Z,2.10
2018-07-30T09:28:12.075Z,2.02
2018-07-30T09:30:41.433Z,2.30
2018-07-30T09:33:10.589Z,2.05
2018-07-30T09:35:40.070Z,1.92
2018-07-30T09:38:10.150Z,2.08
2018-07-30T09:40:39.365Z,2.25
2018-07-30T09:43:08.639Z,1.90
2018-07-30T09:45:37.917Z,1.90
2018-07-30T09:48:07.132Z,1.92
2018-07-30T09:50:36.691Z,1.90
2018-07-30T09:53:05.843Z,2.15
2018-07-30T09:55:34.990Z,1.80
2018-07-30T09:58:04.842Z,1.90
2018-07-30T10:00:39.531Z,1.52
2018-07-30T10:03:08.713Z,1.80
2018-07-30T10:05:37.783Z,1.80
2018-07-30T10:08:07.076Z,2.15
2018-07-30T10:10:36.440Z,1.65
2018-07-30T10:13:05.523Z,1.60
2018-07-30T10:15:34.781Z,1.80
2018-07-30T10:18:03.995Z,1.65
2018-07-30T10:20:33.170Z,1.60
2018-07-30T10:23:02.330Z,1.95
2018-07-30T10:25:32.005Z,2.10
2018-07-30T10:28:01.152Z,1.55
2018-07-30T10:30:30.452Z,1.62
2018-07-30T10:32:59.679Z,2.00
2018-07-30T10:35:28.858Z,1.50
2018-07-30T10:37:58.033Z,1.80
2018-07-30T10:40:27.743Z,1.70
2018-07-30T10:42:57.472Z,1.80
2018-07-30T10:45:26.785Z,1.65
2018-07-30T10:47:55.949Z,1.52
2018-07-30T10:50:25.159Z,1.80
2018-07-30T10:52:54.388Z,2.00
2018-07-30T10:55:23.604Z,1.72
2018-07-30T10:57:52.815Z,1.67
2018-07-30T11:00:22.096Z,1.55
2018-07-30T11:02:51.359Z,1.90
2018-07-30T11:05:20.712Z,1.70
2018-07-30T11:07:49.930Z,1.70
2018-07-30T11:10:18.721Z,1.70
2018-07-30T11:12:47.766Z,1.92
2018-07-30T11:15:17.024Z,1.85
2018-07-30T11:17:46.254Z,1.55
2018-07-30T11:20:15.495Z,1.72
2018-07-30T11:22:44.663Z,1.77
2018-07-30T11:25:14.102Z,1.60
2018-07-30T11:27:43.514Z,2.67
2018-07-30T11:30:12.736Z,1.57
2018-07-30T11:32:41.896Z,1.65
2018-07-30T11:35:11.096Z,1.47
2018-07-30T11:37:40.389Z,1.62
2018-07-30T11:40:09.524Z,2.02
2018-07-30T11:42:38.807Z,1.57
2018-07-30T11:45:08.091Z,2.25
2018-07-30T11:47:37.287Z,1.90
2018-07-30T11:50:06.568Z,1.95
2018-07-30T11:52:35.789Z,2.10
2018-07-30T11:55:05.060Z,2.45
2018-07-30T11:57:34.171Z,2.02
2018-07-30T12:00:03.554Z,1.70
2018-07-30T12:02:32.675Z,1.47
2018-07-30T12:05:01.873Z,1.47
2018-07-30T12:07:31.111Z,2.30
2018-07-30T12:10:00.268Z,1.90
2018-07-30T12:12:29.581Z,1.57
2018-07-30T12:14:58.767Z,1.60
2018-07-30T12:17:27.871Z,1.95
2018-07-30T12:19:56.760Z,2.45
2018-07-30T12:22:25.940Z,1.98
2018-07-30T12:24:55.883Z,2.33
2018-07-30T12:27:25.080Z,1.80
2018-07-30T12:29:53.958Z,1.52
2018-07-30T12:32:22.988Z,1.80
2018-07-30T12:34:52.160Z,2.47
2018-07-30T12:37:22.566Z,2.05
2018-07-30T12:39:51.888Z,1.80
2018-07-30T12:42:21.108Z,1.80
2018-07-30T12:44:50.233Z,2.27
2018-07-30T12:47:19.689Z,2.65
2018-07-30T12:49:49.300Z,1.70
2018-07-30T12:52:18.498Z,1.82
2018-07-30T12:54:47.699Z,1.80
2018-07-30T12:57:23.636Z,2.25
2018-07-30T12:59:52.837Z,2.62
2018-07-30T13:02:22.122Z,1.80
2018-07-30T13:04:51.366Z,1.50
2018-07-30T13:07:20.563Z,1.85
2018-07-30T13:09:49.701Z,1.60
2018-07-30T13:12:19.569Z,2.70
2018-07-30T13:14:48.773Z,2.17
2018-07-30T13:17:18.075Z,1.62
2018-07-30T13:19:47.377Z,1.57
2018-07-30T13:22:16.528Z,1.77
2018-07-30T13:24:45.851Z,1.42
2018-07-30T13:27:15.129Z,1.70
2018-07-30T13:29:44.247Z,1.65
2018-07-30T13:32:13.445Z,1.70
2018-07-30T13:34:42.740Z,1.90
2018-07-30T13:37:12.048Z,2.10
2018-07-30T13:39:41.263Z,2.00
2018-07-30T13:42:10.568Z,2.47
2018-07-30T13:44:39.933Z,2.10
2018-07-30T13:47:09.084Z,1.77
2018-07-30T13:49:38.180Z,2.20
2018-07-30T13:52:07.361Z,1.52
2018-07-30T13:54:36.507Z,1.90
2018-07-30T13:57:05.751Z,2.30
2018-07-30T13:59:34.936Z,1.77
2018-07-30T14:02:04.116Z,1.75
2018-07-30T14:04:33.292Z,1.60
2018-07-30T14:07:02.448Z,1.80
2018-07-30T14:09:31.640Z,2.52
2018-07-30T14:12:00.539Z,1.82
2018-07-30T14:14:30.240Z,2.22
2018-07-30T14:16:59.392Z,1.72
2018-07-30T14:19:28.563Z,2.02
2018-07-30T14:21:57.856Z,1.80
2018-07-30T14:24:26.946Z,2.22
2018-07-30T14:26:56.166Z,1.90
2018-07-30T14:29:25.302Z,1.65
2018-07-30T14:31:54.443Z,1.80
2018-07-30T14:34:23.631Z,2.20
2018-07-30T14:36:52.884Z,1.90
2018-07-30T14:39:22.011Z,2.25
2018-07-30T14:41:54.040Z,1.75
2018-07-30T14:44:23.569Z,2.12
2018-07-30T14:46:52.692Z,2.08
2018-07-30T14:49:21.832Z,2.10
2018-07-30T14:51:51.052Z,2.20
2018-07-30T14:54:20.181Z,1.90
2018-07-30T14:56:49.255Z,2.20
2018-07-30T14:59:21.099Z,2.08
2018-07-30T15:01:50.231Z,2.30
2018-07-30T15:04:19.469Z,3.00
2018-07-30T15:06:48.647Z,2.20
2018-07-30T15:09:17.898Z,1.95
2018-07-30T15:11:47.072Z,1.80
2018-07-30T15:14:16.285Z,2.12
2018-07-30T15:16:45.388Z,2.30
2018-07-30T15:19:14.548Z,2.00
2018-07-30T15:21:43.732Z,2.70
2018-07-30T15:24:12.863Z,2.17
2018-07-30T15:26:42.086Z,2.08
2018-07-30T15:29:11.300Z,2.50
2018-07-30T15:31:40.470Z,2.33
2018-07-30T15:34:09.568Z,1.95
2018-07-30T15:36:38.674Z,1.95
2018-07-30T15:39:09.966Z,2.02
2018-07-30T15:41:39.086Z,2.05
2018-07-30T15:44:08.263Z,1.90
2018-07-30T15:46:37.687Z,1.98
2018-07-30T15:49:06.801Z,1.65
2018-07-30T15:51:35.995Z,2.20
2018-07-30T15:54:05.128Z,2.00
2018-07-30T15:56:34.232Z,2.00
2018-07-30T15:59:03.334Z,2.10
2018-07-30T16:01:32.540Z,2.10
2018-07-30T16:04:01.873Z,2.17
2018-07-30T16:06:30.981Z,2.15
2018-07-30T16:09:00.879Z,2.00
2018-07-30T16:11:30.191Z,1.87
2018-07-30T16:13:59.387Z,2.50
2018-07-30T16:16:28.699Z,2.30
2018-07-30T16:18:58.156Z,1.98
2018-07-30T16:21:27.381Z,2.35
2018-07-30T16:23:56.871Z,2.20
2018-07-30T16:26:26.126Z,1.90
2018-07-30T16:28:55.306Z,2.27
2018-07-30T16:31:24.627Z,2.05
2018-07-30T16:33:53.910Z,2.42
2018-07-30T16:36:23.048Z,2.60
2018-07-30T16:38:52.257Z,2.40
2018-07-30T16:41:21.365Z,2.42
2018-07-30T16:43:50.644Z,1.90
2018-07-30T16:46:19.780Z,5.70
2018-07-30T16:48:48.920Z,2.50
2018-07-30T16:51:18.082Z,2.47
2018-07-30T16:56:21.650Z,2.90
2018-07-30T16:58:51.107Z,2.60
2018-07-30T17:01:20.232Z,2.20
2018-07-30T17:03:49.347Z,2.20
2018-07-30T17:06:18.514Z,2.70
2018-07-30T17:08:47.633Z,2.50
2018-07-30T17:11:16.743Z,2.50
2018-07-30T17:13:45.845Z,2.92
2018-07-30T17:16:15.072Z,2.10
2018-07-30T17:18:44.346Z,2.22
2018-07-30T17:21:13.615Z,2.02
2018-07-30T17:23:42.770Z,2.60
2018-07-30T17:26:11.995Z,2.00
2018-07-30T17:28:41.264Z,2.95
2018-07-30T17:31:10.606Z,1.57
2018-07-30T17:33:39.949Z,2.08
2018-07-30T17:36:09.418Z,1.75
2018-07-30T17:38:38.536Z,1.72
2018-07-30T17:41:07.646Z,1.60
2018-07-30T17:43:37.199Z,1.42
2018-07-30T17:46:06.398Z,1.62
2018-07-30T17:48:35.640Z,2.27
2018-07-30T17:51:05.029Z,2.20
2018-07-30T17:53:34.167Z,2.20
2018-07-30T17:56:03.338Z,2.30
2018-07-30T17:58:33.426Z,2.40
2018-07-30T18:01:02.706Z,2.22
2018-07-30T18:03:31.931Z,2.00
2018-07-30T18:06:01.131Z,2.10
2018-07-30T18:08:30.804Z,2.15
2018-07-30T18:10:59.779Z,2.67
2018-07-30T18:13:28.943Z,3.02
2018-07-30T18:15:58.191Z,2.70
2018-07-30T18:18:27.875Z,2.17
2018-07-30T18:20:57.185Z,3.67
2018-07-30T18:23:26.509Z,2.47
2018-07-30T18:25:55.697Z,2.15
2018-07-30T18:28:24.964Z,2.20
2018-07-30T18:30:55.297Z,2.70
2018-07-30T18:33:24.611Z,2.45
2018-07-30T18:35:53.845Z,2.52
2018-07-30T18:38:22.928Z,2.45
2018-07-30T18:40:52.156Z,2.67
2018-07-30T18:43:21.246Z,2.42
2018-07-30T18:45:50.424Z,2.55
2018-07-30T18:48:19.746Z,2.27
2018-07-30T18:50:48.996Z,2.70
2018-07-30T18:53:17.810Z,2.35
2018-07-30T18:55:47.006Z,2.50
2018-07-30T18:58:16.299Z,2.40
2018-07-30T19:00:45.306Z,2.37
2018-07-30T19:03:14.364Z,2.12
2018-07-30T19:05:43.560Z,3.42
2018-07-30T19:08:12.812Z,2.60
2018-07-30T19:10:42.989Z,3.00
2018-07-30T19:13:12.329Z,2.35
2018-07-30T19:15:41.434Z,2.47
2018-07-30T19:18:10.649Z,3.47
2018-07-30T19:20:39.807Z,3.62
2018-07-30T19:23:09.544Z,2.95
2018-07-30T19:25:38.858Z,2.62
2018-07-30T19:28:08.661Z,2.52
2018-07-30T19:30:37.889Z,2.40
2018-07-30T19:33:07.121Z,2.62
2018-07-30T19:35:36.463Z,2.50
2018-07-30T19:38:06.067Z,3.20
2018-07-30T19:40:35.731Z,2.70
2018-07-30T19:43:05.030Z,2.70
2018-07-30T19:45:34.587Z,2.23
2018-07-30T19:48:03.854Z,2.80
2018-07-30T19:50:33.237Z,5.90
2018-07-30T19:53:02.382Z,3.67
2018-07-30T19:55:31.551Z,2.80
2018-07-30T19:58:00.996Z,2.50
2018-07-30T20:00:29.977Z,2.80
2018-07-30T20:02:59.225Z,2.60
2018-07-30T20:05:28.322Z,2.57
2018-07-30T20:07:58.208Z,2.70
2018-07-30T20:10:27.465Z,2.80
2018-07-30T20:12:56.719Z,3.00
2018-07-30T20:15:25.941Z,2.87
2018-07-30T20:17:55.260Z,3.03
2018-07-30T20:20:24.797Z,2.20
2018-07-30T20:22:54.507Z,2.90
2018-07-30T20:25:23.920Z,2.60
2018-07-30T20:27:53.190Z,3.10
2018-07-30T20:30:22.271Z,2.77
2018-07-30T20:32:51.488Z,2.50
2018-07-30T20:35:20.745Z,2.60
2018-07-30T20:37:49.949Z,2.83
2018-07-30T20:40:19.157Z,2.80
2018-07-30T20:42:48.876Z,3.73
2018-07-30T20:45:18.096Z,2.97
2018-07-30T20:47:47.238Z,3.10
2018-07-30T20:50:16.496Z,2.67
2018-07-30T20:52:45.559Z,2.73
2018-07-30T20:55:14.778Z,2.93
2018-07-30T20:57:43.936Z,2.93
2018-07-30T21:00:13.139Z,3.27
2018-07-30T21:02:42.367Z,3.13
2018-07-30T21:05:11.568Z,3.30
2018-07-30T21:07:40.729Z,3.23
2018-07-30T21:10:09.970Z,3.40
2018-07-30T21:12:39.128Z,3.47
2018-07-30T21:15:08.296Z,3.33
2018-07-30T21:17:37.560Z,3.53
2018-07-30T21:20:06.764Z,3.40
2018-07-30T21:22:35.951Z,3.10
2018-07-30T21:25:05.378Z,3.23
2018-07-30T21:27:34.663Z,2.90
2018-07-30T21:30:04.103Z,3.53
2018-07-30T21:32:33.288Z,3.20
2018-07-30T21:35:02.405Z,3.20
2018-07-30T21:37:31.622Z,4.33
2018-07-30T21:40:00.904Z,3.90
2018-07-30T21:42:30.064Z,4.37
2018-07-30T21:45:00.248Z,5.00
2018-07-30T21:47:29.499Z,4.50
2018-07-30T21:49:58.780Z,4.47
2018-07-30T21:52:27.969Z,5.10
2018-07-30T21:54:57.181Z,5.97
2018-07-30T21:57:26.744Z,6.23
2018-07-30T21:59:56.116Z,6.60
2018-07-30T22:02:25.295Z,6.03
2018-07-30T22:04:54.683Z,5.60
2018-07-30T22:07:24.258Z,6.80
2018-07-30T22:09:53.435Z,7.73
2018-07-30T22:12:22.804Z,7.43
2018-07-30T22:14:51.887Z,7.47
2018-07-30T22:17:21.851Z,8.27
2018-07-30T22:19:51.004Z,8.53
2018-07-30T22:22:20.200Z,8.93
2018-07-30T22:24:49.420Z,9.23
2018-07-30T22:27:18.645Z,10.30
2018-07-30T22:29:47.836Z,10.33
2018-07-30T22:32:17.356Z,10.67
2018-07-30T22:34:46.520Z,10.87
2018-07-30T22:37:15.774Z,10.87
2018-07-30T22:39:45.006Z,10.90
2018-07-30T22:42:14.207Z,10.90
2018-07-30T22:44:43.528Z,10.60
2018-07-30T22:47:12.710Z,9.80
2018-07-30T22:49:41.995Z,10.73
2018-07-30T22:52:11.293Z,10.33
2018-07-30T22:54:40.446Z,11.20
2018-07-30T22:57:09.709Z,11.50
2018-07-30T22:59:38.968Z,11.60
2018-07-30T23:02:08.199Z,12.17
2018-07-30T23:04:37.325Z,12.40
2018-07-30T23:07:06.608Z,11.53
2018-07-30T23:09:35.751Z,11.23
2018-07-30T23:12:05.194Z,10.17
2018-07-30T23:14:34.395Z,9.40
2018-07-30T23:17:03.614Z,8.17
2018-07-30T23:19:32.795Z,7.20
2018-07-30T23:22:01.945Z,6.80
2018-07-30T23:24:31.186Z,6.77
2018-07-30T23:27:00.381Z,5.93
2018-07-30T23:29:29.559Z,5.87
2018-07-30T23:31:58.798Z,5.07
2018-07-30T23:34:28.100Z,4.73
2018-07-30T23:36:57.356Z,4.80
2018-07-30T23:39:26.450Z,4.30
2018-07-30T23:41:55.676Z,4.10
2018-07-30T23:44:25.114Z,3.43
2018-07-30T23:46:54.534Z,3.47
2018-07-30T23:49:23.871Z,3.60
2018-07-30T23:51:53.294Z,3.50
2018-07-30T23:54:22.469Z,3.30
2018-07-30T23:56:51.579Z,3.43
2018-07-30T23:59:20.680Z,3.23
